sensor_id;sensor_type;location;lat;lon;timestamp;pressure;altitude;pressure_sealevel;temperature;humidity
78411;BME280;67706;51.074;-1.796;2024-03-02T00:00:30;98406.28;;;3.91;100.00
78411;BME280;67706;51.074;-1.796;2024-03-02T00:02:57;98401.69;;;3.91;100.00
78411;BME280;67706;51.074;-1.796;2024-03-02T00:05:23;98396.66;;;3.95;100.00
78411;BME280;67706;51.074;-1.796;2024-03-02T00:07:52;98405.41;;;3.97;100.00
78411;BME280;67706;51.074;-1.796;2024-03-02T00:10:20;98402.03;;;4.08;100.00
78411;BME280;67706;51.074;-1.796;2024-03-02T00:12:52;98403.28;;;4.06;100.00
78411;BME280;67706;51.074;-1.796;2024-03-02T00:15:35;98406.59;;;4.14;100.00
78411;BME280;67706;51.074;-1.796;2024-03-02T00:18:06;98404.03;;;4.19;100.00
78411;BME280;67706;51.074;-1.796;2024-03-02T00:20:34;98400.66;;;4.30;100.00
78411;BME280;67706;51.074;-1.796;2024-03-02T00:23:03;98403.16;;;4.32;100.00
78411;BME280;67706;51.074;-1.796;2024-03-02T00:25:37;98403.09;;;4.38;100.00
78411;BME280;67706;51.074;-1.796;2024-03-02T00:28:05;98400.13;;;4.46;100.00
78411;BME280;67706;51.074;-1.796;2024-03-02T00:30:51;98398.28;;;4.40;100.00
78411;BME280;67706;51.074;-1.796;2024-03-02T00:33:19;98397.88;;;4.43;100.00
78411;BME280;67706;51.074;-1.796;2024-03-02T00:35:47;98386.75;;;4.51;100.00
78411;BME280;67706;51.074;-1.796;2024-03-02T00:38:14;98382.59;;;4.49;100.00
78411;BME280;67706;51.074;-1.796;2024-03-02T00:40:42;98393.66;;;4.47;100.00
78411;BME280;67706;51.074;-1.796;2024-03-02T00:46:04;98386.75;;;4.51;100.00
78411;BME280;67706;51.074;-1.796;2024-03-02T00:48:31;98391.34;;;4.51;100.00
78411;BME280;67706;51.074;-1.796;2024-03-02T00:51:01;98391.13;;;4.52;100.00
78411;BME280;67706;51.074;-1.796;2024-03-02T00:53:29;98383.00;;;4.52;100.00
78411;BME280;67706;51.074;-1.796;2024-03-02T00:55:58;98394.25;;;4.56;100.00
78411;BME280;67706;51.074;-1.796;2024-03-02T00:58:26;98378.34;;;4.59;100.00
78411;BME280;67706;51.074;-1.796;2024-03-02T01:00:52;98383.59;;;4.54;100.00
78411;BME280;67706;51.074;-1.796;2024-03-02T01:03:19;98379.59;;;4.57;100.00
78411;BME280;67706;51.074;-1.796;2024-03-02T01:05:46;98386.72;;;4.58;100.00
78411;BME280;67706;51.074;-1.796;2024-03-02T01:08:12;98390.03;;;4.60;100.00
78411;BME280;67706;51.074;-1.796;2024-03-02T01:10:40;98382.50;;;4.62;100.00
78411;BME280;67706;51.074;-1.796;2024-03-02T01:13:06;98378.34;;;4.59;100.00
78411;BME280;67706;51.074;-1.796;2024-03-02T01:15:34;98382.94;;;4.59;100.00
78411;BME280;67706;51.074;-1.796;2024-03-02T01:18:01;98375.19;;;4.62;100.00
78411;BME280;67706;51.074;-1.796;2024-03-02T01:20:28;98359.94;;;4.61;100.00
78411;BME280;67706;51.074;-1.796;2024-03-02T01:22:54;98356.63;;;4.59;100.00
78411;BME280;67706;51.074;-1.796;2024-03-02T01:25:21;98348.75;;;4.51;100.00
78411;BME280;67706;51.074;-1.796;2024-03-02T01:27:48;98367.03;;;4.62;100.00
78411;BME280;67706;51.074;-1.796;2024-03-02T01:30:14;98382.53;;;4.55;100.00
78411;BME280;67706;51.074;-1.796;2024-03-02T01:32:42;98381.50;;;4.56;100.00
78411;BME280;67706;51.074;-1.796;2024-03-02T01:35:09;98388.59;;;4.57;100.00
78411;BME280;67706;51.074;-1.796;2024-03-02T01:37:36;98392.97;;;4.58;100.00
78411;BME280;67706;51.074;-1.796;2024-03-02T01:40:03;98389.19;;;4.59;100.00
78411;BME280;67706;51.074;-1.796;2024-03-02T01:42:35;98394.28;;;4.49;100.00
78411;BME280;67706;51.074;-1.796;2024-03-02T01:45:01;98396.53;;;4.21;100.00
78411;BME280;67706;51.074;-1.796;2024-03-02T01:47:29;98392.66;;;4.04;100.00
78411;BME280;67706;51.074;-1.796;2024-03-02T01:49:56;98387.16;;;4.17;100.00
78411;BME280;67706;51.074;-1.796;2024-03-02T01:52:23;98384.66;;;4.16;100.00
78411;BME280;67706;51.074;-1.796;2024-03-02T01:54:50;98367.56;;;4.09;100.00
78411;BME280;67706;51.074;-1.796;2024-03-02T01:57:17;98349.44;;;4.09;100.00
78411;BME280;67706;51.074;-1.796;2024-03-02T01:59:44;98325.56;;;3.86;100.00
78411;BME280;67706;51.074;-1.796;2024-03-02T02:02:12;98328.41;;;3.98;100.00
78411;BME280;67706;51.074;-1.796;2024-03-02T02:04:39;98325.50;;;3.99;100.00
78411;BME280;67706;51.074;-1.796;2024-03-02T02:07:07;98321.94;;;3.99;100.00
78411;BME280;67706;51.074;-1.796;2024-03-02T02:09:34;98327.38;;;3.99;100.00
78411;BME280;67706;51.074;-1.796;2024-03-02T02:12:00;98330.50;;;3.96;100.00
78411;BME280;67706;51.074;-1.796;2024-03-02T02:14:28;98330.69;;;4.01;100.00
78411;BME280;67706;51.074;-1.796;2024-03-02T02:16:54;98317.13;;;4.01;100.00
78411;BME280;67706;51.074;-1.796;2024-03-02T02:19:21;98310.09;;;3.93;100.00
78411;BME280;67706;51.074;-1.796;2024-03-02T02:21:49;98303.19;;;3.97;100.00
78411;BME280;67706;51.074;-1.796;2024-03-02T02:24:16;98293.59;;;3.95;100.00
78411;BME280;67706;51.074;-1.796;2024-03-02T02:26:42;98274.13;;;4.04;100.00
78411;BME280;67706;51.074;-1.796;2024-03-02T02:29:09;98273.13;;;3.99;100.00
78411;BME280;67706;51.074;-1.796;2024-03-02T02:31:39;98263.16;;;3.93;100.00
78411;BME280;67706;51.074;-1.796;2024-03-02T02:34:06;98252.69;;;3.96;100.00
78411;BME280;67706;51.074;-1.796;2024-03-02T02:36:33;98253.97;;;3.94;100.00
78411;BME280;67706;51.074;-1.796;2024-03-02T02:39:02;98249.16;;;3.96;100.00
78411;BME280;67706;51.074;-1.796;2024-03-02T02:41:30;98225.09;;;4.06;100.00
78411;BME280;67706;51.074;-1.796;2024-03-02T02:43:56;98229.72;;;3.99;100.00
78411;BME280;67706;51.074;-1.796;2024-03-02T02:46:23;98222.59;;;4.04;100.00
78411;BME280;67706;51.074;-1.796;2024-03-02T02:48:49;98210.53;;;4.00;100.00
78411;BME280;67706;51.074;-1.796;2024-03-02T02:51:18;98210.47;;;4.07;100.00
78411;BME280;67706;51.074;-1.796;2024-03-02T02:53:45;98205.50;;;4.04;100.00
78411;BME280;67706;51.074;-1.796;2024-03-02T02:56:13;98187.28;;;4.11;100.00
78411;BME280;67706;51.074;-1.796;2024-03-02T02:58:40;98177.50;;;4.10;100.00
78411;BME280;67706;51.074;-1.796;2024-03-02T03:01:07;98175.81;;;4.09;100.00
78411;BME280;67706;51.074;-1.796;2024-03-02T03:03:34;98168.50;;;4.10;100.00
78411;BME280;67706;51.074;-1.796;2024-03-02T03:06:00;98151.81;;;4.13;100.00
78411;BME280;67706;51.074;-1.796;2024-03-02T03:08:27;98146.91;;;4.21;100.00
78411;BME280;67706;51.074;-1.796;2024-03-02T03:10:54;98127.59;;;4.11;100.00
78411;BME280;67706;51.074;-1.796;2024-03-02T03:13:22;98124.50;;;4.08;100.00
78411;BME280;67706;51.074;-1.796;2024-03-02T03:15:49;98120.38;;;4.23;100.00
78411;BME280;67706;51.074;-1.796;2024-03-02T03:18:15;98112.25;;;4.23;100.00
78411;BME280;67706;51.074;-1.796;2024-03-02T03:20:42;98102.16;;;4.30;100.00
78411;BME280;67706;51.074;-1.796;2024-03-02T03:23:09;98079.94;;;4.40;100.00
78411;BME280;67706;51.074;-1.796;2024-03-02T03:25:40;98091.31;;;4.48;100.00
78411;BME280;67706;51.074;-1.796;2024-03-02T03:28:06;98085.66;;;4.50;100.00
78411;BME280;67706;51.074;-1.796;2024-03-02T03:30:36;98134.91;;;4.53;100.00
78411;BME280;67706;51.074;-1.796;2024-03-02T03:33:03;98135.03;;;4.40;100.00
78411;BME280;67706;51.074;-1.796;2024-03-02T03:35:31;98123.19;;;4.17;100.00
78411;BME280;67706;51.074;-1.796;2024-03-02T03:37:58;98111.66;;;3.96;100.00
78411;BME280;67706;51.074;-1.796;2024-03-02T03:40:24;98121.81;;;3.83;100.00
78411;BME280;67706;51.074;-1.796;2024-03-02T03:42:51;98141.78;;;3.64;100.00
78411;BME280;67706;51.074;-1.796;2024-03-02T03:45:18;98152.13;;;3.42;100.00
78411;BME280;67706;51.074;-1.796;2024-03-02T03:47:46;98140.09;;;3.32;100.00
78411;BME280;67706;51.074;-1.796;2024-03-02T03:50:13;98127.97;;;3.41;100.00
78411;BME280;67706;51.074;-1.796;2024-03-02T03:52:40;98119.50;;;3.31;100.00
78411;BME280;67706;51.074;-1.796;2024-03-02T03:55:07;98113.00;;;3.32;100.00
78411;BME280;67706;51.074;-1.796;2024-03-02T03:57:35;98121.31;;;3.37;100.00
78411;BME280;67706;51.074;-1.796;2024-03-02T04:00:02;98104.00;;;3.38;100.00
78411;BME280;67706;51.074;-1.796;2024-03-02T04:02:29;98103.56;;;3.41;100.00
78411;BME280;67706;51.074;-1.796;2024-03-02T04:04:57;98093.44;;;3.30;100.00
78411;BME280;67706;51.074;-1.796;2024-03-02T04:07:24;98085.06;;;3.31;100.00
78411;BME280;67706;51.074;-1.796;2024-03-02T04:09:50;98092.59;;;3.29;100.00
78411;BME280;67706;51.074;-1.796;2024-03-02T04:12:17;98086.97;;;3.31;100.00
78411;BME280;67706;51.074;-1.796;2024-03-02T04:14:43;98084.31;;;3.24;100.00
78411;BME280;67706;51.074;-1.796;2024-03-02T04:17:10;98085.31;;;3.30;100.00
78411;BME280;67706;51.074;-1.796;2024-03-02T04:19:37;98068.63;;;3.33;100.00
78411;BME280;67706;51.074;-1.796;2024-03-02T04:22:05;98067.19;;;3.30;100.00
78411;BME280;67706;51.074;-1.796;2024-03-02T04:24:31;98065.91;;;3.33;100.00
78411;BME280;67706;51.074;-1.796;2024-03-02T04:26:58;98078.06;;;3.23;100.00
78411;BME280;67706;51.074;-1.796;2024-03-02T04:29:25;98072.63;;;3.23;100.00
78411;BME280;67706;51.074;-1.796;2024-03-02T04:31:51;98076.56;;;3.28;100.00
78411;BME280;67706;51.074;-1.796;2024-03-02T04:34:18;98076.53;;;3.34;100.00
78411;BME280;67706;51.074;-1.796;2024-03-02T04:36:44;98090.44;;;3.38;100.00
78411;BME280;67706;51.074;-1.796;2024-03-02T04:39:12;98078.31;;;3.47;100.00
78411;BME280;67706;51.074;-1.796;2024-03-02T04:41:39;98087.22;;;3.54;100.00
78411;BME280;67706;51.074;-1.796;2024-03-02T04:44:05;98081.53;;;3.62;100.00
78411;BME280;67706;51.074;-1.796;2024-03-02T04:46:33;98077.09;;;3.67;100.00
78411;BME280;67706;51.074;-1.796;2024-03-02T04:48:59;98088.50;;;3.76;100.00
78411;BME280;67706;51.074;-1.796;2024-03-02T04:51:26;98085.75;;;4.00;100.00
78411;BME280;67706;51.074;-1.796;2024-03-02T04:53:53;98092.50;;;4.16;100.00
78411;BME280;67706;51.074;-1.796;2024-03-02T04:56:21;98089.72;;;4.23;100.00
78411;BME280;67706;51.074;-1.796;2024-03-02T04:59:05;98093.41;;;4.28;100.00
78411;BME280;67706;51.074;-1.796;2024-03-02T05:01:32;98096.19;;;4.22;100.00
78411;BME280;67706;51.074;-1.796;2024-03-02T05:03:59;98095.09;;;4.29;100.00
78411;BME280;67706;51.074;-1.796;2024-03-02T05:06:26;98099.31;;;4.25;100.00
78411;BME280;67706;51.074;-1.796;2024-03-02T05:08:53;98108.66;;;4.29;100.00
78411;BME280;67706;51.074;-1.796;2024-03-02T05:11:21;98106.44;;;4.20;100.00
78411;BME280;67706;51.074;-1.796;2024-03-02T05:14:10;98130.44;;;4.23;100.00
78411;BME280;67706;51.074;-1.796;2024-03-02T05:16:37;98130.78;;;4.08;100.00
78411;BME280;67706;51.074;-1.796;2024-03-02T05:19:04;98138.31;;;4.06;100.00
78411;BME280;67706;51.074;-1.796;2024-03-02T05:21:32;98143.16;;;3.97;100.00
78411;BME280;67706;51.074;-1.796;2024-03-02T05:23:59;98159.22;;;3.99;100.00
78411;BME280;67706;51.074;-1.796;2024-03-02T05:26:27;98159.94;;;3.88;100.00
78411;BME280;67706;51.074;-1.796;2024-03-02T05:28:54;98176.66;;;3.85;100.00
78411;BME280;67706;51.074;-1.796;2024-03-02T05:31:21;98171.03;;;3.80;100.00
78411;BME280;67706;51.074;-1.796;2024-03-02T05:33:47;98180.31;;;3.66;100.00
78411;BME280;67706;51.074;-1.796;2024-03-02T05:36:14;98182.31;;;3.46;100.00
78411;BME280;67706;51.074;-1.796;2024-03-02T05:38:40;98192.63;;;3.31;100.00
78411;BME280;67706;51.074;-1.796;2024-03-02T05:41:07;98196.25;;;3.18;100.00
78411;BME280;67706;51.074;-1.796;2024-03-02T05:43:35;98202.13;;;3.02;100.00
78411;BME280;67706;51.074;-1.796;2024-03-02T05:46:02;98210.50;;;2.87;100.00
78411;BME280;67706;51.074;-1.796;2024-03-02T05:48:29;98208.25;;;2.78;100.00
78411;BME280;67706;51.074;-1.796;2024-03-02T05:50:56;98212.03;;;2.64;100.00
78411;BME280;67706;51.074;-1.796;2024-03-02T05:53:22;98214.53;;;2.59;100.00
78411;BME280;67706;51.074;-1.796;2024-03-02T05:55:49;98222.88;;;2.64;100.00
78411;BME280;67706;51.074;-1.796;2024-03-02T05:58:18;98229.53;;;2.61;100.00
78411;BME280;67706;51.074;-1.796;2024-03-02T06:00:58;98229.97;;;2.45;100.00
78411;BME280;67706;51.074;-1.796;2024-03-02T06:03:24;98244.13;;;2.34;100.00
78411;BME280;67706;51.074;-1.796;2024-03-02T06:05:51;98260.75;;;2.18;100.00
78411;BME280;67706;51.074;-1.796;2024-03-02T06:08:17;98264.88;;;1.81;100.00
78411;BME280;67706;51.074;-1.796;2024-03-02T06:10:44;98270.25;;;1.55;100.00
78411;BME280;67706;51.074;-1.796;2024-03-02T06:13:11;98271.81;;;1.36;100.00
78411;BME280;67706;51.074;-1.796;2024-03-02T06:15:37;98281.53;;;1.24;100.00
78411;BME280;67706;51.074;-1.796;2024-03-02T06:18:06;98286.09;;;1.24;100.00
78411;BME280;67706;51.074;-1.796;2024-03-02T06:20:33;98297.53;;;1.19;100.00
78411;BME280;67706;51.074;-1.796;2024-03-02T06:23:00;98288.38;;;1.20;100.00
78411;BME280;67706;51.074;-1.796;2024-03-02T06:25:27;98283.16;;;1.12;100.00
78411;BME280;67706;51.074;-1.796;2024-03-02T06:27:53;98285.06;;;1.25;100.00
78411;BME280;67706;51.074;-1.796;2024-03-02T06:30:20;98282.72;;;1.15;100.00
78411;BME280;67706;51.074;-1.796;2024-03-02T06:32:47;98295.84;;;1.18;100.00
78411;BME280;67706;51.074;-1.796;2024-03-02T06:35:15;98297.91;;;1.16;100.00
78411;BME280;67706;51.074;-1.796;2024-03-02T06:37:41;98292.72;;;1.15;100.00
78411;BME280;67706;51.074;-1.796;2024-03-02T06:40:08;98294.19;;;1.24;100.00
78411;BME280;67706;51.074;-1.796;2024-03-02T06:42:35;98303.38;;;1.29;100.00
78411;BME280;67706;51.074;-1.796;2024-03-02T06:45:02;98307.16;;;1.41;100.00
78411;BME280;67706;51.074;-1.796;2024-03-02T06:47:29;98307.22;;;1.54;100.00
78411;BME280;67706;51.074;-1.796;2024-03-02T06:49:56;98301.00;;;1.60;100.00
78411;BME280;67706;51.074;-1.796;2024-03-02T06:52:25;98314.72;;;1.66;100.00
78411;BME280;67706;51.074;-1.796;2024-03-02T06:54:51;98320.59;;;1.76;100.00
78411;BME280;67706;51.074;-1.796;2024-03-02T06:57:18;98326.00;;;1.76;100.00
78411;BME280;67706;51.074;-1.796;2024-03-02T06:59:46;98331.59;;;1.81;100.00
78411;BME280;67706;51.074;-1.796;2024-03-02T07:02:14;98336.41;;;1.85;100.00
78411;BME280;67706;51.074;-1.796;2024-03-02T07:04:40;98344.75;;;1.90;100.00
78411;BME280;67706;51.074;-1.796;2024-03-02T07:07:07;98346.38;;;1.85;100.00
78411;BME280;67706;51.074;-1.796;2024-03-02T07:09:35;98351.75;;;1.65;100.00
78411;BME280;67706;51.074;-1.796;2024-03-02T07:12:02;98357.13;;;1.65;100.00
78411;BME280;67706;51.074;-1.796;2024-03-02T07:14:28;98361.84;;;1.50;100.00
78411;BME280;67706;51.074;-1.796;2024-03-02T07:17:09;98377.59;;;1.40;100.00
78411;BME280;67706;51.074;-1.796;2024-03-02T07:19:37;98377.81;;;1.45;100.00
78411;BME280;67706;51.074;-1.796;2024-03-02T07:22:06;98382.41;;;1.44;100.00
78411;BME280;67706;51.074;-1.796;2024-03-02T07:24:40;98378.03;;;1.43;100.00
78411;BME280;67706;51.074;-1.796;2024-03-02T07:27:07;98381.56;;;1.44;100.00
78411;BME280;67706;51.074;-1.796;2024-03-02T07:29:34;98383.66;;;1.48;100.00
78411;BME280;67706;51.074;-1.796;2024-03-02T07:32:01;98385.97;;;1.58;100.00
78411;BME280;67706;51.074;-1.796;2024-03-02T07:34:27;98381.19;;;1.53;100.00
78411;BME280;67706;51.074;-1.796;2024-03-02T07:36:55;98387.66;;;1.66;100.00
78411;BME280;67706;51.074;-1.796;2024-03-02T07:39:22;98381.69;;;1.77;100.00
78411;BME280;67706;51.074;-1.796;2024-03-02T07:41:50;98382.31;;;1.79;100.00
78411;BME280;67706;51.074;-1.796;2024-03-02T07:44:17;98391.50;;;1.78;100.00
78411;BME280;67706;51.074;-1.796;2024-03-02T07:46:45;98398.59;;;1.92;100.00
78411;BME280;67706;51.074;-1.796;2024-03-02T07:49:12;98404.03;;;1.98;100.00
78411;BME280;67706;51.074;-1.796;2024-03-02T07:51:39;98402.81;;;2.01;100.00
78411;BME280;67706;51.074;-1.796;2024-03-02T07:54:05;98398.03;;;2.03;100.00
78411;BME280;67706;51.074;-1.796;2024-03-02T07:56:32;98403.03;;;2.12;100.00
78411;BME280;67706;51.074;-1.796;2024-03-02T07:59:01;98394.50;;;2.09;100.00
78411;BME280;67706;51.074;-1.796;2024-03-02T08:01:27;98396.44;;;2.28;100.00
78411;BME280;67706;51.074;-1.796;2024-03-02T08:03:55;98392.66;;;2.29;100.00
78411;BME280;67706;51.074;-1.796;2024-03-02T08:06:23;98401.03;;;2.34;100.00
78411;BME280;67706;51.074;-1.796;2024-03-02T08:08:53;98403.50;;;2.29;100.00
78411;BME280;67706;51.074;-1.796;2024-03-02T08:11:20;98415.16;;;2.36;100.00
78411;BME280;67706;51.074;-1.796;2024-03-02T08:13:48;98400.59;;;2.43;100.00
78411;BME280;67706;51.074;-1.796;2024-03-02T08:16:16;98414.56;;;2.47;100.00
78411;BME280;67706;51.074;-1.796;2024-03-02T08:18:45;98411.63;;;2.42;100.00
78411;BME280;67706;51.074;-1.796;2024-03-02T08:21:12;98428.53;;;2.57;100.00
78411;BME280;67706;51.074;-1.796;2024-03-02T08:23:40;98430.19;;;2.65;100.00
78411;BME280;67706;51.074;-1.796;2024-03-02T08:26:07;98439.78;;;2.67;100.00
78411;BME280;67706;51.074;-1.796;2024-03-02T08:28:34;98427.72;;;2.76;100.00
78411;BME280;67706;51.074;-1.796;2024-03-02T08:31:02;98440.81;;;2.66;100.00
78411;BME280;67706;51.074;-1.796;2024-03-02T08:33:30;98439.78;;;2.74;100.00
78411;BME280;67706;51.074;-1.796;2024-03-02T08:35:57;98427.53;;;2.84;100.00
78411;BME280;67706;51.074;-1.796;2024-03-02T08:38:24;98438.97;;;2.93;100.00
78411;BME280;67706;51.074;-1.796;2024-03-02T08:40:50;98448.13;;;2.92;100.00
78411;BME280;67706;51.074;-1.796;2024-03-02T08:43:17;98443.78;;;2.91;100.00
78411;BME280;67706;51.074;-1.796;2024-03-02T08:45:44;98447.50;;;2.96;100.00
78411;BME280;67706;51.074;-1.796;2024-03-02T08:48:12;98461.06;;;3.16;100.00
78411;BME280;67706;51.074;-1.796;2024-03-02T08:50:40;98451.66;;;3.18;100.00
78411;BME280;67706;51.074;-1.796;2024-03-02T08:53:07;98446.88;;;3.20;100.00
78411;BME280;67706;51.074;-1.796;2024-03-02T08:55:34;98454.38;;;3.18;100.00
78411;BME280;67706;51.074;-1.796;2024-03-02T08:58:01;98466.28;;;3.24;100.00
78411;BME280;67706;51.074;-1.796;2024-03-02T09:00:27;98461.88;;;3.36;100.00
78411;BME280;67706;51.074;-1.796;2024-03-02T09:02:54;98467.69;;;3.40;100.00
78411;BME280;67706;51.074;-1.796;2024-03-02T09:05:21;98471.88;;;3.49;100.00
78411;BME280;67706;51.074;-1.796;2024-03-02T09:07:49;98471.03;;;3.48;100.00
78411;BME280;67706;51.074;-1.796;2024-03-02T09:10:16;98473.09;;;3.59;100.00
78411;BME280;67706;51.074;-1.796;2024-03-02T09:12:43;98482.03;;;3.79;100.00
78411;BME280;67706;51.074;-1.796;2024-03-02T09:15:09;98478.91;;;3.82;100.00
78411;BME280;67706;51.074;-1.796;2024-03-02T09:17:36;98476.41;;;3.81;100.00
78411;BME280;67706;51.074;-1.796;2024-03-02T09:20:03;98486.81;;;3.84;100.00
78411;BME280;67706;51.074;-1.796;2024-03-02T09:22:29;98486.59;;;3.85;100.00
78411;BME280;67706;51.074;-1.796;2024-03-02T09:24:58;98485.53;;;3.93;100.00
78411;BME280;67706;51.074;-1.796;2024-03-02T09:27:25;98494.28;;;4.08;100.00
78411;BME280;67706;51.074;-1.796;2024-03-02T09:29:52;98483.22;;;4.03;100.00
78411;BME280;67706;51.074;-1.796;2024-03-02T09:32:18;98490.97;;;3.99;100.00
78411;BME280;67706;51.074;-1.796;2024-03-02T09:34:45;98500.09;;;4.05;100.00
78411;BME280;67706;51.074;-1.796;2024-03-02T09:37:13;98505.53;;;4.12;100.00
78411;BME280;67706;51.074;-1.796;2024-03-02T09:39:40;98506.13;;;4.20;100.00
78411;BME280;67706;51.074;-1.796;2024-03-02T09:42:08;98502.16;;;4.23;100.00
78411;BME280;67706;51.074;-1.796;2024-03-02T09:44:34;98507.13;;;4.26;100.00
78411;BME280;67706;51.074;-1.796;2024-03-02T09:47:01;98506.28;;;4.32;100.00
78411;BME280;67706;51.074;-1.796;2024-03-02T09:49:27;98506.19;;;4.51;100.00
78411;BME280;67706;51.074;-1.796;2024-03-02T09:51:54;98510.34;;;4.60;100.00
78411;BME280;67706;51.074;-1.796;2024-03-02T09:54:21;98506.75;;;4.66;100.00
78411;BME280;67706;51.074;-1.796;2024-03-02T09:56:49;98501.91;;;4.75;100.00
78411;BME280;67706;51.074;-1.796;2024-03-02T09:59:18;98514.25;;;4.71;100.00
78411;BME280;67706;51.074;-1.796;2024-03-02T10:02:01;98515.44;;;4.81;100.00
78411;BME280;67706;51.074;-1.796;2024-03-02T10:04:29;98523.63;;;4.75;100.00
78411;BME280;67706;51.074;-1.796;2024-03-02T10:07:15;98518.06;;;4.95;100.00
78411;BME280;67706;51.074;-1.796;2024-03-02T10:09:43;98520.66;;;4.83;100.00
78411;BME280;67706;51.074;-1.796;2024-03-02T10:12:11;98513.97;;;4.86;100.00
78411;BME280;67706;51.074;-1.796;2024-03-02T10:14:40;98526.22;;;4.95;100.00
78411;BME280;67706;51.074;-1.796;2024-03-02T10:17:07;98530.16;;;4.99;100.00
78411;BME280;67706;51.074;-1.796;2024-03-02T10:19:35;98528.97;;;4.88;100.00
78411;BME280;67706;51.074;-1.796;2024-03-02T10:22:03;98533.97;;;4.91;100.00
78411;BME280;67706;51.074;-1.796;2024-03-02T10:24:38;98532.69;;;5.00;100.00
78411;BME280;67706;51.074;-1.796;2024-03-02T10:27:09;98535.94;;;5.15;100.00
78411;BME280;67706;51.074;-1.796;2024-03-02T10:29:37;98532.44;;;5.33;100.00
78411;BME280;67706;51.074;-1.796;2024-03-02T10:32:08;98536.66;;;5.29;100.00
78411;BME280;67706;51.074;-1.796;2024-03-02T10:34:36;98536.22;;;5.32;100.00
78411;BME280;67706;51.074;-1.796;2024-03-02T10:37:03;98533.75;;;5.24;100.00
78411;BME280;67706;51.074;-1.796;2024-03-02T10:39:32;98531.13;;;5.42;100.00
78411;BME280;67706;51.074;-1.796;2024-03-02T10:42:01;98538.47;;;5.35;100.00
78411;BME280;67706;51.074;-1.796;2024-03-02T10:44:30;98548.31;;;5.36;100.00
78411;BME280;67706;51.074;-1.796;2024-03-02T10:47:00;98550.72;;;5.50;100.00
78411;BME280;67706;51.074;-1.796;2024-03-02T10:49:29;98553.84;;;5.47;100.00
78411;BME280;67706;51.074;-1.796;2024-03-02T10:51:56;98551.69;;;5.56;100.00
78411;BME280;67706;51.074;-1.796;2024-03-02T10:54:22;98554.25;;;5.51;100.00
78411;BME280;67706;51.074;-1.796;2024-03-02T10:56:53;98562.41;;;5.51;100.00
78411;BME280;67706;51.074;-1.796;2024-03-02T10:59:26;98566.09;;;5.63;100.00
78411;BME280;67706;51.074;-1.796;2024-03-02T11:01:55;98572.41;;;5.57;100.00
78411;BME280;67706;51.074;-1.796;2024-03-02T11:04:24;98580.13;;;5.60;100.00
78411;BME280;67706;51.074;-1.796;2024-03-02T11:07:02;98565.03;;;5.64;100.00
78411;BME280;67706;51.074;-1.796;2024-03-02T11:09:33;98580.25;;;5.72;100.00
78411;BME280;67706;51.074;-1.796;2024-03-02T11:12:03;98583.16;;;5.70;100.00
78411;BME280;67706;51.074;-1.796;2024-03-02T11:14:33;98587.00;;;5.62;100.00
78411;BME280;67706;51.074;-1.796;2024-03-02T11:17:03;98590.91;;;5.73;100.00
78411;BME280;67706;51.074;-1.796;2024-03-02T11:19:31;98600.91;;;5.79;100.00
78411;BME280;67706;51.074;-1.796;2024-03-02T11:22:02;98602.63;;;5.74;100.00
78411;BME280;67706;51.074;-1.796;2024-03-02T11:24:31;98602.00;;;5.72;100.00
78411;BME280;67706;51.074;-1.796;2024-03-02T11:26:59;98603.19;;;5.82;100.00
78411;BME280;67706;51.074;-1.796;2024-03-02T11:29:45;98605.25;;;5.87;100.00
78411;BME280;67706;51.074;-1.796;2024-03-02T11:32:14;98604.16;;;5.94;100.00
78411;BME280;67706;51.074;-1.796;2024-03-02T11:34:42;98609.75;;;5.99;100.00
78411;BME280;67706;51.074;-1.796;2024-03-02T11:37:13;98608.09;;;5.98;100.00
78411;BME280;67706;51.074;-1.796;2024-03-02T11:39:42;98615.13;;;6.06;100.00
78411;BME280;67706;51.074;-1.796;2024-03-02T11:42:10;98606.88;;;5.94;100.00
78411;BME280;67706;51.074;-1.796;2024-03-02T11:44:40;98613.16;;;5.95;100.00
78411;BME280;67706;51.074;-1.796;2024-03-02T11:47:08;98605.88;;;6.13;100.00
78411;BME280;67706;51.074;-1.796;2024-03-02T11:49:40;98606.94;;;6.30;100.00
78411;BME280;67706;51.074;-1.796;2024-03-02T11:52:09;98605.59;;;6.39;100.00
78411;BME280;67706;51.074;-1.796;2024-03-02T11:54:39;98611.50;;;6.55;100.00
78411;BME280;67706;51.074;-1.796;2024-03-02T11:57:08;98603.75;;;6.33;100.00
78411;BME280;67706;51.074;-1.796;2024-03-02T11:59:35;98616.16;;;6.29;100.00
78411;BME280;67706;51.074;-1.796;2024-03-02T12:02:02;98618.09;;;6.04;100.00
78411;BME280;67706;51.074;-1.796;2024-03-02T12:04:29;98619.41;;;5.64;100.00
78411;BME280;67706;51.074;-1.796;2024-03-02T12:06:59;98626.34;;;5.60;100.00
78411;BME280;67706;51.074;-1.796;2024-03-02T12:09:26;98616.97;;;5.56;100.00
78411;BME280;67706;51.074;-1.796;2024-03-02T12:12:05;98621.41;;;5.50;100.00
78411;BME280;67706;51.074;-1.796;2024-03-02T12:14:32;98620.31;;;5.58;100.00
78411;BME280;67706;51.074;-1.796;2024-03-02T12:16:59;98624.59;;;5.72;100.00
78411;BME280;67706;51.074;-1.796;2024-03-02T12:19:27;98623.63;;;5.91;100.00
78411;BME280;67706;51.074;-1.796;2024-03-02T12:21:55;98627.78;;;6.18;100.00
78411;BME280;67706;51.074;-1.796;2024-03-02T12:24:22;98619.19;;;6.21;100.00
78411;BME280;67706;51.074;-1.796;2024-03-02T12:26:49;98624.03;;;6.37;100.00
78411;BME280;67706;51.074;-1.796;2024-03-02T12:29:20;98625.78;;;6.50;100.00
78411;BME280;67706;51.074;-1.796;2024-03-02T12:31:48;98615.72;;;6.32;100.00
78411;BME280;67706;51.074;-1.796;2024-03-02T12:34:15;98619.47;;;6.13;100.00
78411;BME280;67706;51.074;-1.796;2024-03-02T12:36:44;98615.31;;;6.29;100.00
78411;BME280;67706;51.074;-1.796;2024-03-02T12:39:13;98614.66;;;6.33;100.00
78411;BME280;67706;51.074;-1.796;2024-03-02T12:41:40;98614.41;;;6.35;100.00
78411;BME280;67706;51.074;-1.796;2024-03-02T12:44:07;98619.66;;;6.55;100.00
78411;BME280;67706;51.074;-1.796;2024-03-02T12:46:35;98621.25;;;6.62;100.00
78411;BME280;67706;51.074;-1.796;2024-03-02T12:49:07;98616.22;;;6.66;100.00
78411;BME280;67706;51.074;-1.796;2024-03-02T12:51:35;98620.28;;;6.57;100.00
78411;BME280;67706;51.074;-1.796;2024-03-02T12:54:02;98621.50;;;6.61;100.00
78411;BME280;67706;51.074;-1.796;2024-03-02T12:56:30;98625.91;;;6.62;100.00